sensor_id;sensor_type;location;lat;lon;timestamp;pressure;altitude;pressure_sealevel;temperature;humidity
58295;BME280;45705;55.592;37.460;2023-02-13T00:01:08;99373.97;;;-7.05;100.00
58295;BME280;45705;55.592;37.460;2023-02-13T00:03:33;99370.44;;;-6.90;100.00
58295;BME280;45705;55.592;37.460;2023-02-13T00:05:59;99374.66;;;-7.18;100.00
58295;BME280;45705;55.592;37.460;2023-02-13T00:08:25;99371.38;;;-7.20;100.00
58295;BME280;45705;55.592;37.460;2023-02-13T00:10:51;99365.28;;;-7.20;100.00
58295;BME280;45705;55.592;37.460;2023-02-13T00:13:16;99367.34;;;-7.16;100.00
58295;BME280;45705;55.592;37.460;2023-02-13T00:15:42;99350.63;;;-7.23;100.00
58295;BME280;45705;55.592;37.460;2023-02-13T00:18:08;99346.22;;;-7.16;100.00
58295;BME280;45705;55.592;37.460;2023-02-13T00:20:34;99351.72;;;-7.54;100.00
58295;BME280;45705;55.592;37.460;2023-02-13T00:23:00;99348.84;;;-7.37;100.00
58295;BME280;45705;55.592;37.460;2023-02-13T00:25:25;99341.56;;;-7.35;100.00
58295;BME280;45705;55.592;37.460;2023-02-13T00:27:51;99332.94;;;-7.44;100.00
58295;BME280;45705;55.592;37.460;2023-02-13T00:30:19;99341.56;;;-7.35;100.00
58295;BME280;45705;55.592;37.460;2023-02-13T00:32:45;99335.41;;;-7.21;100.00
58295;BME280;45705;55.592;37.460;2023-02-13T00:35:11;99330.81;;;-7.12;100.00
58295;BME280;45705;55.592;37.460;2023-02-13T00:37:37;99321.69;;;-7.31;100.00
58295;BME280;45705;55.592;37.460;2023-02-13T00:40:03;99327.72;;;-6.94;100.00
58295;BME280;45705;55.592;37.460;2023-02-13T00:42:29;99319.72;;;-6.79;100.00
58295;BME280;45705;55.592;37.460;2023-02-13T00:44:55;99311.00;;;-7.01;100.00
58295;BME280;45705;55.592;37.460;2023-02-13T00:47:22;99311.47;;;-6.91;100.00
58295;BME280;45705;55.592;37.460;2023-02-13T00:49:48;99301.63;;;-6.76;100.00
58295;BME280;45705;55.592;37.460;2023-02-13T00:52:14;99297.97;;;-6.75;100.00
58295;BME280;45705;55.592;37.460;2023-02-13T00:54:40;99284.78;;;-6.96;100.00
58295;BME280;45705;55.592;37.460;2023-02-13T00:57:05;99291.44;;;-7.28;100.00
58295;BME280;45705;55.592;37.460;2023-02-13T00:59:31;99289.09;;;-6.95;100.00
58295;BME280;45705;55.592;37.460;2023-02-13T01:01:58;99298.47;;;-7.14;100.00
58295;BME280;45705;55.592;37.460;2023-02-13T01:04:23;99295.03;;;-7.15;100.00
58295;BME280;45705;55.592;37.460;2023-02-13T01:06:49;99286.47;;;-7.17;100.00
58295;BME280;45705;55.592;37.460;2023-02-13T01:09:15;99289.84;;;-7.01;100.00
58295;BME280;45705;55.592;37.460;2023-02-13T01:11:40;99291.09;;;-6.97;100.00
58295;BME280;45705;55.592;37.460;2023-02-13T01:14:06;99286.47;;;-7.17;100.00
58295;BME280;45705;55.592;37.460;2023-02-13T01:16:32;99283.69;;;-7.08;100.00
58295;BME280;45705;55.592;37.460;2023-02-13T01:18:57;99282.56;;;-6.99;100.00
58295;BME280;45705;55.592;37.460;2023-02-13T01:21:23;99280.03;;;-6.86;100.00
58295;BME280;45705;55.592;37.460;2023-02-13T01:23:51;99280.25;;;-6.81;100.00
58295;BME280;45705;55.592;37.460;2023-02-13T01:26:21;99277.59;;;-6.81;100.00
58295;BME280;45705;55.592;37.460;2023-02-13T01:28:55;99274.94;;;-6.81;100.00
58295;BME280;45705;55.592;37.460;2023-02-13T01:31:22;99274.63;;;-6.71;100.00
58295;BME280;45705;55.592;37.460;2023-02-13T01:33:49;99250.97;;;-6.51;100.00
58295;BME280;45705;55.592;37.460;2023-02-13T01:36:15;99262.34;;;-6.50;100.00
58295;BME280;45705;55.592;37.460;2023-02-13T01:38:41;99256.00;;;-6.56;100.00
58295;BME280;45705;55.592;37.460;2023-02-13T01:41:08;99243.47;;;-6.47;99.95
58295;BME280;45705;55.592;37.460;2023-02-13T01:46:14;99237.31;;;-6.48;99.35
58295;BME280;45705;55.592;37.460;2023-02-13T01:48:40;99231.69;;;-6.38;98.88
58295;BME280;45705;55.592;37.460;2023-02-13T01:51:11;99232.91;;;-6.41;98.53
58295;BME280;45705;55.592;37.460;2023-02-13T01:53:45;99229.00;;;-6.45;98.71
58295;BME280;45705;55.592;37.460;2023-02-13T01:56:34;99226.44;;;-6.31;99.30
58295;BME280;45705;55.592;37.460;2023-02-13T01:59:08;99212.22;;;-6.24;96.99
58295;BME280;45705;55.592;37.460;2023-02-13T02:01:36;99220.72;;;-6.35;97.87
58295;BME280;45705;55.592;37.460;2023-02-13T02:04:12;99207.91;;;-6.31;97.15
58295;BME280;45705;55.592;37.460;2023-02-13T02:06:43;99205.47;;;-6.26;97.67
58295;BME280;45705;55.592;37.460;2023-02-13T02:09:22;99212.19;;;-6.30;97.20
58295;BME280;45705;55.592;37.460;2023-02-13T02:14:27;99202.31;;;-6.50;98.85
58295;BME280;45705;55.592;37.460;2023-02-13T02:16:55;99198.50;;;-6.41;98.23
58295;BME280;45705;55.592;37.460;2023-02-13T02:19:49;99194.81;;;-6.46;98.08
58295;BME280;45705;55.592;37.460;2023-02-13T02:22:40;99187.91;;;-6.47;98.12
58295;BME280;45705;55.592;37.460;2023-02-13T02:33:46;99177.59;;;-6.22;96.52
58295;BME280;45705;55.592;37.460;2023-02-13T02:36:25;99173.34;;;-6.30;96.21
58295;BME280;45705;55.592;37.460;2023-02-13T02:44:40;99158.47;;;-6.24;98.05
58295;BME280;45705;55.592;37.460;2023-02-13T02:58:04;99136.53;;;-6.11;96.68
58295;BME280;45705;55.592;37.460;2023-02-13T03:00:56;99127.94;;;-6.34;98.78
58295;BME280;45705;55.592;37.460;2023-02-13T03:03:43;99132.50;;;-6.01;98.61
58295;BME280;45705;55.592;37.460;2023-02-13T03:06:36;99125.13;;;-5.92;97.49
58295;BME280;45705;55.592;37.460;2023-02-13T03:09:06;99118.22;;;-5.86;97.59
58295;BME280;45705;55.592;37.460;2023-02-13T03:11:54;99120.63;;;-5.91;97.50
58295;BME280;45705;55.592;37.460;2023-02-13T03:14:39;99109.88;;;-5.83;98.42
58295;BME280;45705;55.592;37.460;2023-02-13T03:17:12;99108.00;;;-5.89;98.09
58295;BME280;45705;55.592;37.460;2023-02-13T03:20:14;99115.38;;;-5.98;99.17
58295;BME280;45705;55.592;37.460;2023-02-13T03:25:41;99105.56;;;-5.51;97.74
58295;BME280;45705;55.592;37.460;2023-02-13T03:31:14;99100.50;;;-5.66;97.94
58295;BME280;45705;55.592;37.460;2023-02-13T03:34:04;99089.31;;;-5.81;98.19
58295;BME280;45705;55.592;37.460;2023-02-13T03:36:48;99082.75;;;-5.59;97.38
58295;BME280;45705;55.592;37.460;2023-02-13T03:39:52;99077.44;;;-5.45;97.94
58295;BME280;45705;55.592;37.460;2023-02-13T03:42:36;99072.97;;;-5.45;97.67
58295;BME280;45705;55.592;37.460;2023-02-13T03:45:12;99058.44;;;-5.22;96.44
58295;BME280;45705;55.592;37.460;2023-02-13T03:48:00;99048.50;;;-5.27;96.98
58295;BME280;45705;55.592;37.460;2023-02-13T03:50:47;99051.34;;;-5.35;97.06
58295;BME280;45705;55.592;37.460;2023-02-13T03:53:14;99043.69;;;-5.83;100.00
58295;BME280;45705;55.592;37.460;2023-02-13T03:55:44;99046.16;;;-6.02;100.00
58295;BME280;45705;55.592;37.460;2023-02-13T03:58:34;99040.81;;;-6.35;100.00
58295;BME280;45705;55.592;37.460;2023-02-13T04:01:22;99054.88;;;-6.01;100.00
58295;BME280;45705;55.592;37.460;2023-02-13T04:03:56;99041.03;;;-5.83;100.00
58295;BME280;45705;55.592;37.460;2023-02-13T04:06:29;99047.94;;;-5.56;100.00
58295;BME280;45705;55.592;37.460;2023-02-13T04:08:56;99045.66;;;-5.45;100.00
58295;BME280;45705;55.592;37.460;2023-02-13T04:14:18;99043.81;;;-5.38;100.00
58295;BME280;45705;55.592;37.460;2023-02-13T04:16:49;99037.44;;;-5.17;100.00
58295;BME280;45705;55.592;37.460;2023-02-13T04:19:16;99025.88;;;-5.36;100.00
58295;BME280;45705;55.592;37.460;2023-02-13T04:21:48;99017.41;;;-5.06;100.00
58295;BME280;45705;55.592;37.460;2023-02-13T04:24:19;99024.00;;;-5.16;100.00
58295;BME280;45705;55.592;37.460;2023-02-13T04:26:45;99017.44;;;-5.13;100.00
58295;BME280;45705;55.592;37.460;2023-02-13T04:31:45;98999.00;;;-4.95;100.00
58295;BME280;45705;55.592;37.460;2023-02-13T04:34:11;98990.00;;;-4.87;100.00
58295;BME280;45705;55.592;37.460;2023-02-13T04:36:37;98987.59;;;-4.95;100.00
58295;BME280;45705;55.592;37.460;2023-02-13T04:39:03;98987.75;;;-5.28;100.00
58295;BME280;45705;55.592;37.460;2023-02-13T04:41:28;98992.00;;;-5.27;100.00
58295;BME280;45705;55.592;37.460;2023-02-13T04:43:54;98988.69;;;-5.09;100.00
58295;BME280;45705;55.592;37.460;2023-02-13T04:46:20;98981.88;;;-4.92;100.00
58295;BME280;45705;55.592;37.460;2023-02-13T04:48:45;98979.72;;;-4.70;100.00
58295;BME280;45705;55.592;37.460;2023-02-13T04:51:11;98968.78;;;-4.80;100.00
58295;BME280;45705;55.592;37.460;2023-02-13T04:53:37;98964.41;;;-4.68;100.00
58295;BME280;45705;55.592;37.460;2023-02-13T04:56:03;98964.88;;;-4.78;100.00
58295;BME280;45705;55.592;37.460;2023-02-13T04:58:29;98964.34;;;-4.93;100.00
58295;BME280;45705;55.592;37.460;2023-02-13T05:00:55;98956.06;;;-4.71;100.00
58295;BME280;45705;55.592;37.460;2023-02-13T05:03:21;98959.56;;;-4.78;100.00
58295;BME280;45705;55.592;37.460;2023-02-13T05:05:47;98948.59;;;-4.56;100.00
58295;BME280;45705;55.592;37.460;2023-02-13T05:08:13;98956.34;;;-4.55;100.00
58295;BME280;45705;55.592;37.460;2023-02-13T05:10:39;98940.81;;;-4.51;100.00
58295;BME280;45705;55.592;37.460;2023-02-13T05:13:05;98939.19;;;-4.52;100.00
58295;BME280;45705;55.592;37.460;2023-02-13T05:15:31;98931.50;;;-4.60;100.00
58295;BME280;45705;55.592;37.460;2023-02-13T05:17:56;98925.53;;;-4.56;100.00
58295;BME280;45705;55.592;37.460;2023-02-13T05:20:22;98913.00;;;-4.42;100.00
58295;BME280;45705;55.592;37.460;2023-02-13T05:22:49;98918.31;;;-4.42;100.00
58295;BME280;45705;55.592;37.460;2023-02-13T05:25:35;98901.44;;;-4.54;100.00
58295;BME280;45705;55.592;37.460;2023-02-13T05:28:01;98918.06;;;-4.65;100.00
58295;BME280;45705;55.592;37.460;2023-02-13T05:30:27;98920.47;;;-4.57;100.00
58295;BME280;45705;55.592;37.460;2023-02-13T05:32:53;98913.84;;;-4.48;100.00
58295;BME280;45705;55.592;37.460;2023-02-13T05:35:20;98915.97;;;-4.31;100.00
58295;BME280;45705;55.592;37.460;2023-02-13T05:37:47;98899.47;;;-4.33;100.00
58295;BME280;45705;55.592;37.460;2023-02-13T05:40:13;98902.13;;;-4.15;100.00
58295;BME280;45705;55.592;37.460;2023-02-13T05:42:40;98903.19;;;-3.98;100.00
58295;BME280;45705;55.592;37.460;2023-02-13T05:45:06;98897.16;;;-4.05;100.00
58295;BME280;45705;55.592;37.460;2023-02-13T05:47:32;98904.66;;;-4.20;100.00
58295;BME280;45705;55.592;37.460;2023-02-13T05:49:58;98899.44;;;-3.90;100.00
58295;BME280;45705;55.592;37.460;2023-02-13T05:52:24;98905.84;;;-4.16;100.00
58295;BME280;45705;55.592;37.460;2023-02-13T05:54:50;98908.50;;;-3.98;100.00
58295;BME280;45705;55.592;37.460;2023-02-13T05:57:15;98910.94;;;-3.96;100.00
58295;BME280;45705;55.592;37.460;2023-02-13T05:59:41;98916.88;;;-3.76;100.00
58295;BME280;45705;55.592;37.460;2023-02-13T06:02:07;98914.53;;;-3.84;100.00
58295;BME280;45705;55.592;37.460;2023-02-13T06:04:33;98913.91;;;-3.67;100.00
58295;BME280;45705;55.592;37.460;2023-02-13T06:06:59;98907.19;;;-3.51;100.00
58295;BME280;45705;55.592;37.460;2023-02-13T06:09:24;98918.19;;;-3.85;100.00
58295;BME280;45705;55.592;37.460;2023-02-13T06:11:50;98908.00;;;-3.88;100.00
58295;BME280;45705;55.592;37.460;2023-02-13T06:14:16;98912.88;;;-3.48;100.00
58295;BME280;45705;55.592;37.460;2023-02-13T06:16:41;98903.06;;;-3.47;100.00
58295;BME280;45705;55.592;37.460;2023-02-13T06:19:07;98897.41;;;-3.21;98.82
58295;BME280;45705;55.592;37.460;2023-02-13T06:21:33;98898.91;;;-3.43;99.32
58295;BME280;45705;55.592;37.460;2023-02-13T06:24:05;98905.72;;;-3.47;99.58
58295;BME280;45705;55.592;37.460;2023-02-13T06:26:32;98890.50;;;-3.22;99.16
58295;BME280;45705;55.592;37.460;2023-02-13T06:28:57;98893.31;;;-3.53;99.28
58295;BME280;45705;55.592;37.460;2023-02-13T06:31:23;98902.47;;;-3.31;99.43
58295;BME280;45705;55.592;37.460;2023-02-13T06:33:49;98902.88;;;-3.64;100.00
58295;BME280;45705;55.592;37.460;2023-02-13T06:36:15;98910.16;;;-3.41;99.29
58295;BME280;45705;55.592;37.460;2023-02-13T06:38:40;98897.03;;;-3.24;98.75
58295;BME280;45705;55.592;37.460;2023-02-13T06:41:07;98890.28;;;-3.39;98.74
58295;BME280;45705;55.592;37.460;2023-02-13T06:43:34;98888.06;;;-3.42;99.69
58295;BME280;45705;55.592;37.460;2023-02-13T06:46:04;98882.97;;;-3.43;99.50
58295;BME280;45705;55.592;37.460;2023-02-13T06:48:30;98881.50;;;-3.58;100.00
58295;BME280;45705;55.592;37.460;2023-02-13T06:50:56;98869.66;;;-3.25;99.48
58295;BME280;45705;55.592;37.460;2023-02-13T06:53:23;98861.72;;;-3.13;99.96
58295;BME280;45705;55.592;37.460;2023-02-13T06:55:51;98870.09;;;-3.28;98.81
58295;BME280;45705;55.592;37.460;2023-02-13T06:58:18;98855.22;;;-3.47;99.37
58295;BME280;45705;55.592;37.460;2023-02-13T07:00:44;98868.75;;;-3.19;99.76
58295;BME280;45705;55.592;37.460;2023-02-13T07:03:10;98860.34;;;-3.15;98.36
58295;BME280;45705;55.592;37.460;2023-02-13T07:05:39;98854.94;;;-2.97;98.90
58295;BME280;45705;55.592;37.460;2023-02-13T07:08:07;98840.25;;;-3.00;99.41
58295;BME280;45705;55.592;37.460;2023-02-13T07:10:33;98848.84;;;-2.86;99.19
58295;BME280;45705;55.592;37.460;2023-02-13T07:12:58;98847.25;;;-2.87;99.07
58295;BME280;45705;55.592;37.460;2023-02-13T07:15:24;98842.22;;;-2.95;99.82
58295;BME280;45705;55.592;37.460;2023-02-13T07:17:56;98838.56;;;-2.70;99.88
58295;BME280;45705;55.592;37.460;2023-02-13T07:20:24;98839.41;;;-2.46;98.79
58295;BME280;45705;55.592;37.460;2023-02-13T07:22:50;98829.31;;;-2.80;98.73
58295;BME280;45705;55.592;37.460;2023-02-13T07:25:15;98829.34;;;-2.32;98.24
58295;BME280;45705;55.592;37.460;2023-02-13T07:27:41;98840.91;;;-2.62;98.67
58295;BME280;45705;55.592;37.460;2023-02-13T07:30:07;98845.53;;;-3.11;100.00
58295;BME280;45705;55.592;37.460;2023-02-13T07:32:33;98816.22;;;-2.81;100.00
58295;BME280;45705;55.592;37.460;2023-02-13T07:34:59;98825.75;;;-2.62;100.00
58295;BME280;45705;55.592;37.460;2023-02-13T07:37:27;98828.63;;;-2.87;100.00
58295;BME280;45705;55.592;37.460;2023-02-13T07:39:53;98810.59;;;-2.61;100.00
58295;BME280;45705;55.592;37.460;2023-02-13T07:42:19;98807.34;;;-2.40;100.00
58295;BME280;45705;55.592;37.460;2023-02-13T07:44:45;98810.59;;;-2.38;100.00
58295;BME280;45705;55.592;37.460;2023-02-13T07:47:10;98799.91;;;-2.14;100.00
58295;BME280;45705;55.592;37.460;2023-02-13T07:49:36;98802.81;;;-2.27;100.00
58295;BME280;45705;55.592;37.460;2023-02-13T07:52:03;98806.31;;;-2.15;100.00
58295;BME280;45705;55.592;37.460;2023-02-13T07:54:29;98805.72;;;-2.17;99.43
58295;BME280;45705;55.592;37.460;2023-02-13T07:56:55;98800.50;;;-2.12;100.00
58295;BME280;45705;55.592;37.460;2023-02-13T07:59:21;98805.00;;;-2.01;99.68
58295;BME280;45705;55.592;37.460;2023-02-13T08:01:46;98794.34;;;-2.01;99.72
58295;BME280;45705;55.592;37.460;2023-02-13T08:04:13;98800.69;;;-2.02;100.00
58295;BME280;45705;55.592;37.460;2023-02-13T08:06:39;98796.09;;;-1.66;98.78
58295;BME280;45705;55.592;37.460;2023-02-13T08:09:05;98802.97;;;-1.82;99.20
58295;BME280;45705;55.592;37.460;2023-02-13T08:11:51;98793.66;;;-2.08;100.00
58295;BME280;45705;55.592;37.460;2023-02-13T08:14:25;98797.94;;;-2.07;100.00
58295;BME280;45705;55.592;37.460;2023-02-13T08:16:52;98788.75;;;-1.87;100.00
58295;BME280;45705;55.592;37.460;2023-02-13T08:19:18;98784.28;;;-1.70;99.69
58295;BME280;45705;55.592;37.460;2023-02-13T08:21:44;98775.22;;;-1.69;99.96
58295;BME280;45705;55.592;37.460;2023-02-13T08:24:11;98772.78;;;-1.30;98.21
58295;BME280;45705;55.592;37.460;2023-02-13T08:26:37;98764.28;;;-1.27;96.96
58295;BME280;45705;55.592;37.460;2023-02-13T08:29:03;98760.53;;;-1.43;98.51
58295;BME280;45705;55.592;37.460;2023-02-13T08:31:29;98742.44;;;-1.69;99.99
58295;BME280;45705;55.592;37.460;2023-02-13T08:33:55;98734.69;;;-1.25;98.97
58295;BME280;45705;55.592;37.460;2023-02-13T08:36:22;98739.00;;;-1.07;97.48
58295;BME280;45705;55.592;37.460;2023-02-13T08:38:48;98740.75;;;-1.13;97.14
58295;BME280;45705;55.592;37.460;2023-02-13T08:41:14;98735.53;;;-1.53;100.00
58295;BME280;45705;55.592;37.460;2023-02-13T08:43:42;98736.00;;;-1.28;99.93
58295;BME280;45705;55.592;37.460;2023-02-13T08:46:08;98720.53;;;-1.09;99.19
58295;BME280;45705;55.592;37.460;2023-02-13T08:48:34;98740.28;;;-1.10;99.21
58295;BME280;45705;55.592;37.460;2023-02-13T08:51:04;98714.09;;;-1.13;100.00
58295;BME280;45705;55.592;37.460;2023-02-13T08:53:32;98717.97;;;-1.21;99.49
58295;BME280;45705;55.592;37.460;2023-02-13T08:55:58;98723.47;;;-1.10;100.00
58295;BME280;45705;55.592;37.460;2023-02-13T08:58:24;98721.75;;;-1.00;100.00
58295;BME280;45705;55.592;37.460;2023-02-13T09:00:50;98720.41;;;-1.02;99.95
58295;BME280;45705;55.592;37.460;2023-02-13T09:03:16;98721.69;;;-0.88;99.71
58295;BME280;45705;55.592;37.460;2023-02-13T09:05:41;98713.69;;;-0.49;99.31
58295;BME280;45705;55.592;37.460;2023-02-13T09:08:07;98701.72;;;-0.85;99.54
58295;BME280;45705;55.592;37.460;2023-02-13T09:10:36;98717.66;;;-0.90;100.00
58295;BME280;45705;55.592;37.460;2023-02-13T09:13:03;98708.56;;;-0.72;100.00
58295;BME280;45705;55.592;37.460;2023-02-13T09:15:29;98710.84;;;-0.81;100.00
58295;BME280;45705;55.592;37.460;2023-02-13T09:17:54;98700.13;;;-0.64;100.00
58295;BME280;45705;55.592;37.460;2023-02-13T09:20:20;98700.97;;;-0.42;99.42
58295;BME280;45705;55.592;37.460;2023-02-13T09:22:46;98705.66;;;-0.71;100.00
58295;BME280;45705;55.592;37.460;2023-02-13T09:25:11;98695.09;;;-0.61;100.00
58295;BME280;45705;55.592;37.460;2023-02-13T09:27:38;98700.41;;;-0.44;100.00
58295;BME280;45705;55.592;37.460;2023-02-13T09:30:05;98697.28;;;-0.35;99.66
58295;BME280;45705;55.592;37.460;2023-02-13T09:32:31;98678.06;;;-0.76;100.00
58295;BME280;45705;55.592;37.460;2023-02-13T09:34:58;98687.53;;;-0.69;100.00
58295;BME280;45705;55.592;37.460;2023-02-13T09:37:25;98675.41;;;-0.76;100.00
58295;BME280;45705;55.592;37.460;2023-02-13T09:39:51;98661.91;;;-0.48;100.00
58295;BME280;45705;55.592;37.460;2023-02-13T09:42:23;98653.25;;;-0.55;100.00
58295;BME280;45705;55.592;37.460;2023-02-13T09:44:55;98646.72;;;-0.20;100.00
58295;BME280;45705;55.592;37.460;2023-02-13T09:47:30;98642.50;;;-0.16;100.00
58295;BME280;45705;55.592;37.460;2023-02-13T09:50:02;98638.47;;;0.09;99.38
58295;BME280;45705;55.592;37.460;2023-02-13T09:52:32;98638.47;;;0.09;98.94
58295;BME280;45705;55.592;37.460;2023-02-13T09:55:00;98635.72;;;-0.02;99.41
58295;BME280;45705;55.592;37.460;2023-02-13T09:57:33;98628.81;;;0.03;100.00
58295;BME280;45705;55.592;37.460;2023-02-13T10:00:12;98624.16;;;0.20;100.00
58295;BME280;45705;55.592;37.460;2023-02-13T10:08:08;98618.22;;;0.13;100.00
58295;BME280;45705;55.592;37.460;2023-02-13T10:10:59;98609.22;;;0.24;99.79
58295;BME280;45705;55.592;37.460;2023-02-13T10:19:10;98610.22;;;0.45;98.81
58295;BME280;45705;55.592;37.460;2023-02-13T10:25:39;98609.16;;;0.84;96.38
58295;BME280;45705;55.592;37.460;2023-02-13T10:27:43;98611.19;;;0.66;97.40
58295;BME280;45705;55.592;37.460;2023-02-13T10:30:23;98606.28;;;0.58;98.80
58295;BME280;45705;55.592;37.460;2023-02-13T10:38:23;98613.34;;;0.37;100.00
58295;BME280;45705;55.592;37.460;2023-02-13T10:46:47;98603.81;;;0.19;100.00
58295;BME280;45705;55.592;37.460;2023-02-13T11:03:22;98550.47;;;0.34;100.00
58295;BME280;45705;55.592;37.460;2023-02-13T11:05:50;98521.69;;;0.47;100.00
58295;BME280;45705;55.592;37.460;2023-02-13T11:10:47;98539.28;;;0.37;100.00
58295;BME280;45705;55.592;37.460;2023-02-13T11:13:16;98534.88;;;0.58;100.00
58295;BME280;45705;55.592;37.460;2023-02-13T11:18:22;98535.22;;;0.72;100.00
58295;BME280;45705;55.592;37.460;2023-02-13T11:20:59;98525.78;;;0.59;100.00
58295;BME280;45705;55.592;37.460;2023-02-13T11:28:27;98513.94;;;0.98;100.00
58295;BME280;45705;55.592;37.460;2023-02-13T11:31:11;98528.91;;;0.94;100.00
58295;BME280;45705;55.592;37.460;2023-02-13T11:33:38;98535.31;;;0.93;100.00
58295;BME280;45705;55.592;37.460;2023-02-13T11:36:15;98531.91;;;0.60;100.00
58295;BME280;45705;55.592;37.460;2023-02-13T11:38:42;98525.16;;;0.90;100.00
58295;BME280;45705;55.592;37.460;2023-02-13T11:41:10;98520.94;;;1.09;100.00
58295;BME280;45705;55.592;37.460;2023-02-13T11:43:53;98526.13;;;0.73;100.00
58295;BME280;45705;55.592;37.460;2023-02-13T11:46:21;98506.41;;;0.90;100.00
58295;BME280;45705;55.592;37.460;2023-02-13T11:49:02;98498.38;;;0.90;100.00
58295;BME280;45705;55.592;37.460;2023-02-13T11:51:43;98480.38;;;0.75;100.00
58295;BME280;45705;55.592;37.460;2023-02-13T11:54:32;98496.72;;;0.78;100.00
58295;BME280;45705;55.592;37.460;2023-02-13T11:59:43;98486.72;;;1.16;100.00
58295;BME280;45705;55.592;37.460;2023-02-13T12:02:21;98456.63;;;0.84;100.00
58295;BME280;45705;55.592;37.460;2023-02-13T12:05:34;98470.59;;;1.01;100.00
58295;BME280;45705;55.592;37.460;2023-02-13T12:07:36;98472.63;;;0.78;100.00
58295;BME280;45705;55.592;37.460;2023-02-13T12:10:18;98462.59;;;1.11;100.00
58295;BME280;45705;55.592;37.460;2023-02-13T12:12:55;98479.78;;;1.31;100.00
58295;BME280;45705;55.592;37.460;2023-02-13T12:15:34;98464.78;;;1.30;100.00
58295;BME280;45705;55.592;37.460;2023-02-13T12:25:53;98455.78;;;0.78;100.00
58295;BME280;45705;55.592;37.460;2023-02-13T12:31:43;98453.03;;;0.68;100.00
58295;BME280;45705;55.592;37.460;2023-02-13T12:39:38;98442.47;;;0.98;100.00
58295;BME280;45705;55.592;37.460;2023-02-13T13:01:50;98418.69;;;1.07;100.00
58295;BME280;45705;55.592;37.460;2023-02-13T13:07:31;98402.91;;;1.21;100.00
58295;BME280;45705;55.592;37.460;2023-02-13T13:28:24;98409.63;;;1.34;100.00
58295;BME280;45705;55.592;37.460;2023-02-13T13:30:54;98404.28;;;1.49;100.00
58295;BME280;45705;55.592;37.460;2023-02-13T13:33:23;98398.66;;;1.56;100.00
58295;BME280;45705;55.592;37.460;2023-02-13T13:38:36;98401.88;;;1.58;100.00
58295;BME280;45705;55.592;37.460;2023-02-13T13:44:48;98405.34;;;1.23;100.00
58295;BME280;45705;55.592;37.460;2023-02-13T13:47:03;98392.47;;;1.25;100.00
58295;BME280;45705;55.592;37.460;2023-02-13T13:49:50;98394.09;;;1.41;100.00
58295;BME280;45705;55.592;37.460;2023-02-13T13:52:23;98388.75;;;1.46;100.00
58295;BME280;45705;55.592;37.460;2023-02-13T13:54:50;98391.94;;;1.58;100.00
58295;BME280;45705;55.592;37.460;2023-02-13T13:57:18;98383.38;;;1.56;100.00
58295;BME280;45705;55.592;37.460;2023-02-13T14:07:25;98379.63;;;1.52;100.00
58295;BME280;45705;55.592;37.460;2023-02-13T14:09:57;98377.47;;;1.29;100.00
58295;BME280;45705;55.592;37.460;2023-02-13T14:14:53;98371.88;;;1.56;100.00
58295;BME280;45705;55.592;37.460;2023-02-13T14:23:29;98355.00;;;1.25;100.00
58295;BME280;45705;55.592;37.460;2023-02-13T14:31:19;98341.59;;;1.35;100.00
58295;BME280;45705;55.592;37.460;2023-02-13T14:36:27;98329.81;;;1.46;100.00
58295;BME280;45705;55.592;37.460;2023-02-13T14:39:06;98337.56;;;1.12;100.00
58295;BME280;45705;55.592;37.460;2023-02-13T14:44:19;98337.31;;;1.18;100.00
58295;BME280;45705;55.592;37.460;2023-02-13T14:46:49;98336.50;;;1.23;100.00
58295;BME280;45705;55.592;37.460;2023-02-13T14:49:25;98334.66;;;1.18;100.00
58295;BME280;45705;55.592;37.460;2023-02-13T14:51:57;98335.69;;;1.28;100.00
58295;BME280;45705;55.592;37.460;2023-02-13T14:54:44;98330.34;;;1.28;100.00
58295;BME280;45705;55.592;37.460;2023-02-13T14:59:46;98314.28;;;1.38;100.00
58295;BME280;45705;55.592;37.460;2023-02-13T15:02:21;98309.47;;;1.20;100.00
58295;BME280;45705;55.592;37.460;2023-02-13T15:05:03;98312.69;;;1.01;100.00
58295;BME280;45705;55.592;37.460;2023-02-13T15:07:36;98305.69;;;1.00;100.00
58295;BME280;45705;55.592;37.460;2023-02-13T15:13:05;98282.69;;;1.20;100.00
58295;BME280;45705;55.592;37.460;2023-02-13T15:15:38;98283.78;;;1.34;100.00
58295;BME280;45705;55.592;37.460;2023-02-13T15:18:10;98274.38;;;1.21;100.00
58295;BME280;45705;55.592;37.460;2023-02-13T15:20:42;98268.78;;;0.97;100.00
58295;BME280;45705;55.592;37.460;2023-02-13T15:23:20;98260.22;;;1.21;100.00
58295;BME280;45705;55.592;37.460;2023-02-13T15:25:46;98253.78;;;1.32;100.00
58295;BME280;45705;55.592;37.460;2023-02-13T15:28:19;98248.16;;;1.03;100.00
58295;BME280;45705;55.592;37.460;2023-02-13T15:31:22;98254.84;;;1.00;100.00
58295;BME280;45705;55.592;37.460;2023-02-13T15:33:49;98253.25;;;0.99;100.00
58295;BME280;45705;55.592;37.460;2023-02-13T15:36:20;98250.03;;;1.02;100.00
58295;BME280;45705;55.592;37.460;2023-02-13T15:38:46;98248.97;;;0.98;100.00
58295;BME280;45705;55.592;37.460;2023-02-13T15:41:36;98242.00;;;1.02;100.00
58295;BME280;45705;55.592;37.460;2023-02-13T15:44:03;98244.41;;;1.09;100.00
58295;BME280;45705;55.592;37.460;2023-02-13T15:46:33;98221.91;;;1.25;100.00
58295;BME280;45705;55.592;37.460;2023-02-13T15:49:21;98220.03;;;1.10;100.00
58295;BME280;45705;55.592;37.460;2023-02-13T15:51:49;98213.09;;;1.04;100.00
58295;BME280;45705;55.592;37.460;2023-02-13T15:54:30;98215.25;;;0.92;100.00
58295;BME280;45705;55.592;37.460;2023-02-13T15:56:59;98211.19;;;1.05;100.00
58295;BME280;45705;55.592;37.460;2023-02-13T15:59:34;98203.97;;;1.21;100.00
58295;BME280;45705;55.592;37.460;2023-02-13T16:02:01;98194.63;;;1.08;100.00
58295;BME280;45705;55.592;37.460;2023-02-13T16:04:28;98190.03;;;1.29;100.00
58295;BME280;45705;55.592;37.460;2023-02-13T16:06:55;98187.91;;;1.10;100.00
58295;BME280;45705;55.592;37.460;2023-02-13T16:09:24;98179.38;;;0.98;100.00
58295;BME280;45705;55.592;37.460;2023-02-13T16:11:55;98185.25;;;1.05;100.00